CYHI

Ulukhaktok Holman Airport

Ulukhaktok, Northwest Territories, Canada
METAR CYHI 242300Z 32004KT 320V040 15SM -SN BKN018 M12/M17 A3013 RMK SC7 SLP208
Observed Flight Rules
Apr-24 @ 23:00 UTC (2 hours ago) Marginal Visual Flight Rules
Wind Visibility Clouds Conditions
320° at 4 knots 15 miles
  • Broken at 1,800' AGL
  • Light Snow
Temperatures Readings
Current -12°C / 10°F
Dewpoint -17°C / 1°F
Humidity 67%
Altimeter 30.13" Hg
Pressure 1020.8 hPa
Elevation 36
METAR CYHI 242300Z 32004KT 320V040 15SM -SN BKN018 M12/M17 A3013 RMK SC7 SLP208
Observed Flight Rules
Apr-24 @ 23:00 UTC
(2 hours ago)
MVFR
Wind Visibility
320° at 4 knots 15 miles
Clouds
  • Broken at 1,800' AGL
Conditions
  • Light Snow
Temperature Dewpoint
-12°C / 10°F -17°C / 1°F
Humidity Altimeter Pressure
67% 30.13" Hg 1020.8 hPa